Time;durP1;ratioP1;P1;durP2;ratioP2;P2;SDS_P1;SDS_P2;PMS_P1;PMS_P2;Temp;Humidity;BMP_temperature;BMP_pressure;BME280_temperature;BME280_humidity;BME280_pressure;Samples;Min_cycle;Max_cycle;Signal;HPM_P1;HPM_P2
2023/10/30 00:00:23;;;;;;;2.20;0.77;;;;;;;;;;5055338;28;20025;-61
2023/10/30 00:02:48;;;;;;;3.08;0.80;;;;;;;;;;5053518;28;20143;-61
2023/10/30 00:05:16;;;;;;;3.13;1.00;;;;;;;;;;5052509;28;20551;-58
2023/10/30 00:07:41;;;;;;;1.40;0.68;;;;;;;;;;5048281;28;20513;-60
2023/10/30 00:10:07;;;;;;;2.80;0.75;;;;;;;;;;5052755;28;20044;-60
2023/10/30 00:12:33;;;;;;;3.10;0.75;;;;;;;;;;5051440;28;20062;-60
2023/10/30 00:15:02;;;;;;;3.80;0.90;;;;;;;;;;5056970;28;20097;-61
2023/10/30 00:17:28;;;;;;;2.25;0.80;;;;;;;;;;5054161;28;20083;-60
2023/10/30 00:19:53;;;;;;;1.15;0.47;;;;;;;;;;5053700;28;20494;-58
2023/10/30 00:22:19;;;;;;;2.90;0.88;;;;;;;;;;5053914;28;20040;-60
2023/10/30 00:24:45;;;;;;;1.23;0.60;;;;;;;;;;5053574;28;20083;-60
2023/10/30 00:27:11;;;;;;;1.65;0.73;;;;;;;;;;5054984;28;20535;-60
2023/10/30 00:29:40;;;;;;;1.65;0.70;;;;;;;;;;5052522;28;20053;-60
2023/10/30 00:32:06;;;;;;;2.00;0.77;;;;;;;;;;5053437;28;20643;-61
2023/10/30 00:34:32;;;;;;;2.40;0.85;;;;;;;;;;5051404;28;20059;-59
2023/10/30 00:36:58;;;;;;;1.63;0.57;;;;;;;;;;5052658;28;20121;-61
2023/10/30 00:39:23;;;;;;;1.73;0.65;;;;;;;;;;5053795;28;20037;-60
2023/10/30 00:41:49;;;;;;;2.38;0.70;;;;;;;;;;5052789;28;20891;-60
2023/10/30 00:44:14;;;;;;;1.95;0.80;;;;;;;;;;5055014;28;20067;-61
2023/10/30 00:46:40;;;;;;;2.33;0.70;;;;;;;;;;5054438;28;20032;-61
2023/10/30 00:49:06;;;;;;;1.13;0.50;;;;;;;;;;5053463;28;20482;-60
2023/10/30 00:51:31;;;;;;;2.50;0.65;;;;;;;;;;5055732;28;20062;-59
2023/10/30 00:53:57;;;;;;;1.77;0.60;;;;;;;;;;5052079;28;20033;-61
2023/10/30 00:56:22;;;;;;;1.08;0.50;;;;;;;;;;5053598;28;20488;-61
2023/10/30 00:58:48;;;;;;;1.42;0.60;;;;;;;;;;5051321;28;20055;-61
2023/10/30 01:01:16;;;;;;;2.45;0.75;;;;;;;;;;5051277;28;20058;-60
2023/10/30 01:03:42;;;;;;;3.53;0.80;;;;;;;;;;5053697;28;20532;-61
2023/10/30 01:06:08;;;;;;;1.92;0.82;;;;;;;;;;5052107;28;20060;-59
2023/10/30 01:08:33;;;;;;;1.80;0.63;;;;;;;;;;5053549;28;20029;-61
2023/10/30 01:10:59;;;;;;;2.22;0.70;;;;;;;;;;5051545;28;20569;-61
2023/10/30 01:13:25;;;;;;;1.80;0.68;;;;;;;;;;5055861;28;20043;-61
2023/10/30 01:15:52;;;;;;;3.33;0.63;;;;;;;;;;5058056;28;20640;-61
2023/10/30 01:18:17;;;;;;;1.58;0.68;;;;;;;;;;5053938;28;20073;-61
2023/10/30 01:20:43;;;;;;;1.77;0.70;;;;;;;;;;5056678;28;20082;-60
2023/10/30 01:23:09;;;;;;;1.80;0.70;;;;;;;;;;5057094;28;20311;-61
2023/10/30 01:25:34;;;;;;;2.75;0.70;;;;;;;;;;5057215;28;20029;-60
2023/10/30 01:28:00;;;;;;;2.13;0.80;;;;;;;;;;5058430;28;20033;-60
2023/10/30 01:30:25;;;;;;;0.82;0.40;;;;;;;;;;5056941;28;20120;-61
2023/10/30 01:32:51;;;;;;;1.60;0.65;;;;;;;;;;5056412;28;20040;-60
2023/10/30 01:35:16;;;;;;;1.63;0.70;;;;;;;;;;5055903;28;20049;-60
2023/10/30 01:37:42;;;;;;;2.90;1.00;;;;;;;;;;5056465;28;20079;-61
2023/10/30 01:40:09;;;;;;;1.92;0.52;;;;;;;;;;5056989;28;20025;-60
2023/10/30 01:42:34;;;;;;;1.33;0.50;;;;;;;;;;5054273;28;20650;-59
2023/10/30 01:45:00;;;;;;;2.13;0.60;;;;;;;;;;5056362;28;20094;-60
2023/10/30 01:47:26;;;;;;;1.80;0.65;;;;;;;;;;5054675;28;20079;-60
2023/10/30 01:49:52;;;;;;;2.10;0.90;;;;;;;;;;5057241;28;20032;-61
2023/10/30 01:52:17;;;;;;;1.30;0.57;;;;;;;;;;5057581;28;20068;-61
2023/10/30 01:54:45;;;;;;;3.45;0.80;;;;;;;;;;5056681;28;20128;-62
2023/10/30 01:57:11;;;;;;;1.35;0.52;;;;;;;;;;5057541;28;20071;-61
2023/10/30 01:59:37;;;;;;;1.55;0.55;;;;;;;;;;5056309;28;20075;-61
2023/10/30 02:02:02;;;;;;;1.42;0.68;;;;;;;;;;5058340;28;20072;-61
2023/10/30 02:04:28;;;;;;;2.33;0.52;;;;;;;;;;5044385;28;20444;-60
2023/10/30 02:06:54;;;;;;;1.42;0.60;;;;;;;;;;5054567;28;20041;-59
2023/10/30 02:09:19;;;;;;;1.58;0.70;;;;;;;;;;5057615;28;20523;-60
2023/10/30 02:11:45;;;;;;;3.00;0.60;;;;;;;;;;5053964;28;20065;-61
2023/10/30 02:14:12;;;;;;;2.55;0.52;;;;;;;;;;5055339;28;20052;-61
2023/10/30 02:16:37;;;;;;;1.25;0.60;;;;;;;;;;5053861;28;20044;-58
2023/10/30 02:19:05;;;;;;;1.88;0.70;;;;;;;;;;5057244;28;20102;-61
2023/10/30 02:21:31;;;;;;;2.58;0.70;;;;;;;;;;5056119;28;20056;-60
2023/10/30 02:24:01;;;;;;;1.98;0.70;;;;;;;;;;5056943;28;20122;-61
2023/10/30 02:26:26;;;;;;;1.17;0.52;;;;;;;;;;5056049;28;20125;-60
2023/10/30 02:28:52;;;;;;;1.48;0.55;;;;;;;;;;5055858;28;20452;-60
2023/10/30 02:31:17;;;;;;;1.20;0.50;;;;;;;;;;5055169;28;20082;-61
2023/10/30 02:33:43;;;;;;;1.40;0.50;;;;;;;;;;5054922;28;20099;-60
2023/10/30 02:36:10;;;;;;;2.15;0.90;;;;;;;;;;5055097;28;20048;-61
2023/10/30 02:38:36;;;;;;;0.90;0.50;;;;;;;;;;5055362;28;20061;-58
2023/10/30 02:41:01;;;;;;;1.63;0.50;;;;;;;;;;5054670;28;20110;-60
2023/10/30 02:43:27;;;;;;;1.45;0.60;;;;;;;;;;5052408;28;20033;-60
2023/10/30 02:45:53;;;;;;;2.72;0.60;;;;;;;;;;5057711;28;20037;-61
2023/10/30 02:48:18;;;;;;;2.50;0.73;;;;;;;;;;5054523;28;20106;-61
2023/10/30 02:50:44;;;;;;;1.10;0.50;;;;;;;;;;5054216;28;20086;-60
2023/10/30 02:53:09;;;;;;;1.20;0.47;;;;;;;;;;5054459;28;20025;-61
2023/10/30 02:55:35;;;;;;;1.27;0.77;;;;;;;;;;5056171;28;20029;-61
2023/10/30 02:58:01;;;;;;;1.73;0.70;;;;;;;;;;5055146;28;20555;-61
2023/10/30 03:00:26;;;;;;;2.05;0.75;;;;;;;;;;5053949;28;20037;-61
2023/10/30 03:02:52;;;;;;;2.08;0.68;;;;;;;;;;5056199;28;20036;-62
2023/10/30 03:05:17;;;;;;;2.63;0.60;;;;;;;;;;5056614;28;20559;-61
2023/10/30 03:07:43;;;;;;;2.95;0.82;;;;;;;;;;5056517;28;20036;-60
2023/10/30 03:10:09;;;;;;;1.70;0.63;;;;;;;;;;5053263;28;20048;-61
2023/10/30 03:12:34;;;;;;;1.55;0.60;;;;;;;;;;5055815;28;20450;-60
2023/10/30 03:15:00;;;;;;;2.67;0.70;;;;;;;;;;5054798;28;20095;-61
2023/10/30 03:17:25;;;;;;;1.52;0.50;;;;;;;;;;5053165;28;20028;-60
2023/10/30 03:19:51;;;;;;;1.27;0.50;;;;;;;;;;5053411;28;20041;-61
2023/10/30 03:22:17;;;;;;;1.70;0.80;;;;;;;;;;5056707;28;20125;-61
2023/10/30 03:24:42;;;;;;;3.20;0.57;;;;;;;;;;5051267;28;20071;-60
2023/10/30 03:27:08;;;;;;;1.48;0.60;;;;;;;;;;5057573;28;20028;-60
2023/10/30 03:29:34;;;;;;;1.20;0.52;;;;;;;;;;5054047;28;20074;-60
2023/10/30 03:32:00;;;;;;;2.17;0.60;;;;;;;;;;5053954;28;20083;-60
2023/10/30 03:34:26;;;;;;;1.38;0.50;;;;;;;;;;5054505;28;20033;-61
2023/10/30 03:36:51;;;;;;;1.17;0.60;;;;;;;;;;5053556;28;20044;-60
2023/10/30 03:39:17;;;;;;;1.70;0.50;;;;;;;;;;5052626;28;20098;-61
2023/10/30 03:41:44;;;;;;;1.75;0.60;;;;;;;;;;5052247;28;20494;-61
2023/10/30 03:44:11;;;;;;;1.00;0.50;;;;;;;;;;5053088;28;20072;-61
2023/10/30 03:46:37;;;;;;;1.15;0.50;;;;;;;;;;5052343;28;20619;-61
2023/10/30 03:49:02;;;;;;;3.10;0.60;;;;;;;;;;5059085;28;20027;-60
2023/10/30 03:51:28;;;;;;;2.65;0.65;;;;;;;;;;5057049;28;20033;-60
2023/10/30 03:53:53;;;;;;;1.08;0.47;;;;;;;;;;5055185;28;20437;-61
2023/10/30 03:56:19;;;;;;;1.25;0.50;;;;;;;;;;5054206;28;20036;-60
2023/10/30 03:58:44;;;;;;;1.50;0.70;;;;;;;;;;5055566;28;20036;-61
2023/10/30 04:01:10;;;;;;;1.92;0.57;;;;;;;;;;5052916;28;20160;-60
2023/10/30 04:03:36;;;;;;;0.57;0.30;;;;;;;;;;5052324;28;20036;-60
2023/10/30 04:06:02;;;;;;;0.90;0.50;;;;;;;;;;5054869;28;20033;-60
2023/10/30 04:08:28;;;;;;;1.67;0.60;;;;;;;;;;5054950;28;20076;-60
2023/10/30 04:10:53;;;;;;;1.55;0.60;;;;;;;;;;5051761;28;20044;-61
2023/10/30 04:13:19;;;;;;;1.85;0.60;;;;;;;;;;5055650;28;20182;-61
2023/10/30 04:15:46;;;;;;;1.63;0.60;;;;;;;;;;5051827;28;20041;-61
2023/10/30 04:18:12;;;;;;;1.73;0.60;;;;;;;;;;5052784;28;20688;-61
2023/10/30 04:20:38;;;;;;;1.08;0.50;;;;;;;;;;5055929;28;20074;-59
2023/10/30 04:23:04;;;;;;;1.42;0.55;;;;;;;;;;5053613;28;20028;-60
2023/10/30 04:25:29;;;;;;;1.35;0.60;;;;;;;;;;5055013;28;20118;-61
2023/10/30 04:27:55;;;;;;;1.98;0.60;;;;;;;;;;5051018;28;20759;-60
2023/10/30 04:30:20;;;;;;;1.48;0.55;;;;;;;;;;5052256;28;20040;-61
2023/10/30 04:32:46;;;;;;;1.60;0.60;;;;;;;;;;5055162;28;20036;-61
2023/10/30 04:35:12;;;;;;;1.10;0.43;;;;;;;;;;5054356;28;20565;-61
2023/10/30 04:37:37;;;;;;;0.82;0.40;;;;;;;;;;5052444;28;20032;-61
2023/10/30 04:40:04;;;;;;;2.10;0.60;;;;;;;;;;5052758;28;20044;-60
2023/10/30 04:42:30;;;;;;;1.88;0.70;;;;;;;;;;5054814;28;20056;-60
2023/10/30 04:44:56;;;;;;;1.65;0.60;;;;;;;;;;5053517;28;20059;-60
2023/10/30 04:47:21;;;;;;;0.85;0.40;;;;;;;;;;5056526;28;20040;-61
2023/10/30 04:49:47;;;;;;;1.45;0.60;;;;;;;;;;5056323;28;20486;-60
2023/10/30 04:52:12;;;;;;;0.90;0.40;;;;;;;;;;5057065;28;20103;-61
2023/10/30 04:54:39;;;;;;;1.35;0.57;;;;;;;;;;5055830;28;20041;-61
2023/10/30 04:57:05;;;;;;;1.88;0.55;;;;;;;;;;5059036;28;20494;-60
2023/10/30 04:59:30;;;;;;;1.80;0.65;;;;;;;;;;5059257;28;20053;-61
2023/10/30 05:01:56;;;;;;;1.25;0.55;;;;;;;;;;5055810;28;20078;-61
2023/10/30 05:04:22;;;;;;;1.25;0.50;;;;;;;;;;5056866;28;20024;-61
2023/10/30 05:06:48;;;;;;;3.20;0.68;;;;;;;;;;5057826;28;20044;-61
2023/10/30 05:09:13;;;;;;;1.58;0.60;;;;;;;;;;5059705;28;20449;-60
2023/10/30 05:11:39;;;;;;;2.67;0.50;;;;;;;;;;5055532;28;20072;-61
2023/10/30 05:14:05;;;;;;;2.13;0.68;;;;;;;;;;5056072;28;20131;-60
2023/10/30 05:16:30;;;;;;;2.05;0.70;;;;;;;;;;5056859;28;20119;-61
2023/10/30 05:18:56;;;;;;;1.13;0.50;;;;;;;;;;5055765;28;20036;-60
2023/10/30 05:21:22;;;;;;;1.23;0.50;;;;;;;;;;5056129;28;20086;-60
2023/10/30 05:23:48;;;;;;;2.22;0.70;;;;;;;;;;5057783;28;20506;-61
2023/10/30 05:26:14;;;;;;;1.25;0.50;;;;;;;;;;5056066;28;20067;-61
2023/10/30 05:28:39;;;;;;;0.60;0.40;;;;;;;;;;5057147;28;20082;-60
2023/10/30 05:31:05;;;;;;;1.80;0.50;;;;;;;;;;5056195;28;20563;-61
2023/10/30 05:33:31;;;;;;;1.48;0.63;;;;;;;;;;5059509;28;20025;-61
2023/10/30 05:35:57;;;;;;;1.92;0.60;;;;;;;;;;5058262;28;20840;-61
2023/10/30 05:38:22;;;;;;;2.22;0.50;;;;;;;;;;5058039;28;20083;-61
2023/10/30 05:40:48;;;;;;;1.52;0.60;;;;;;;;;;5055926;28;20051;-61
2023/10/30 05:43:14;;;;;;;1.55;0.70;;;;;;;;;;5058109;28;20041;-63
2023/10/30 05:45:39;;;;;;;1.85;0.50;;;;;;;;;;5056679;28;20048;-61
2023/10/30 05:48:05;;;;;;;1.42;0.60;;;;;;;;;;5057077;28;20033;-58
2023/10/30 05:50:31;;;;;;;1.90;0.50;;;;;;;;;;5057019;28;20037;-60
2023/10/30 05:52:56;;;;;;;2.83;0.57;;;;;;;;;;5058073;28;20102;-61
2023/10/30 05:55:22;;;;;;;1.85;0.60;;;;;;;;;;5058589;28;20041;-60
2023/10/30 05:57:47;;;;;;;2.38;0.63;;;;;;;;;;5054756;28;20674;-60
2023/10/30 06:00:14;;;;;;;1.50;0.55;;;;;;;;;;5057112;28;20036;-61
2023/10/30 06:02:39;;;;;;;1.67;0.75;;;;;;;;;;5055451;28;20056;-61
2023/10/30 06:05:07;;;;;;;2.05;0.70;;;;;;;;;;5055425;28;20028;-60
2023/10/30 06:07:34;;;;;;;3.33;0.82;;;;;;;;;;5060332;28;20066;-60
2023/10/30 06:10:00;;;;;;;4.05;0.82;;;;;;;;;;5055426;28;20061;-60
2023/10/30 06:12:26;;;;;;;3.28;0.90;;;;;;;;;;5050044;28;20538;-62
2023/10/30 06:14:51;;;;;;;6.38;1.50;;;;;;;;;;5052206;28;20066;-61
2023/10/30 06:17:17;;;;;;;3.95;1.10;;;;;;;;;;5055075;28;20049;-60
2023/10/30 06:19:43;;;;;;;8.18;1.67;;;;;;;;;;5053696;28;20380;-61
2023/10/30 06:22:08;;;;;;;7.53;1.50;;;;;;;;;;5054441;28;20057;-61
2023/10/30 06:24:34;;;;;;;4.22;1.50;;;;;;;;;;5052973;28;20082;-61
2023/10/30 06:26:59;;;;;;;4.25;1.23;;;;;;;;;;5056402;28;20727;-61
2023/10/30 06:29:25;;;;;;;4.07;1.30;;;;;;;;;;5054093;28;20040;-61
2023/10/30 06:31:50;;;;;;;5.53;1.35;;;;;;;;;;5052839;28;20107;-61
2023/10/30 06:34:16;;;;;;;4.80;1.27;;;;;;;;;;5051226;28;20142;-61
2023/10/30 06:36:42;;;;;;;4.45;1.40;;;;;;;;;;5054286;28;20044;-61
2023/10/30 06:39:07;;;;;;;5.38;1.50;;;;;;;;;;5051012;28;20033;-61
2023/10/30 06:41:33;;;;;;;4.43;1.45;;;;;;;;;;5056503;28;20086;-61
2023/10/30 06:43:58;;;;;;;3.90;1.52;;;;;;;;;;5049452;28;20041;-61
2023/10/30 06:46:24;;;;;;;5.35;1.50;;;;;;;;;;5050093;28;20041;-61
2023/10/30 06:48:50;;;;;;;5.50;1.40;;;;;;;;;;5052232;28;20121;-61
2023/10/30 06:51:15;;;;;;;6.22;1.20;;;;;;;;;;5053231;28;20799;-61
2023/10/30 06:53:41;;;;;;;5.57;1.20;;;;;;;;;;5050735;28;20091;-61
2023/10/30 06:56:07;;;;;;;4.63;1.60;;;;;;;;;;5050828;28;20024;-61
2023/10/30 06:58:32;;;;;;;4.70;1.58;;;;;;;;;;5054932;28;20452;-61
2023/10/30 07:01:02;;;;;;;5.88;1.33;;;;;;;;;;5053592;28;20115;-61
2023/10/30 07:03:28;;;;;;;3.95;1.30;;;;;;;;;;5052247;28;20124;-62
2023/10/30 07:05:54;;;;;;;4.30;1.42;;;;;;;;;;5049564;28;20033;-62
2023/10/30 07:08:19;;;;;;;5.18;1.33;;;;;;;;;;5052586;28;20029;-60
2023/10/30 07:10:45;;;;;;;5.47;1.40;;;;;;;;;;5051729;28;20044;-59
2023/10/30 07:13:10;;;;;;;6.65;1.33;;;;;;;;;;5049933;28;20125;-61
2023/10/30 07:15:36;;;;;;;5.93;2.33;;;;;;;;;;5051039;28;20036;-61
2023/10/30 07:18:02;;;;;;;4.68;1.10;;;;;;;;;;5053065;28;20044;-61
2023/10/30 07:20:27;;;;;;;4.22;1.20;;;;;;;;;;5050842;28;20049;-61
2023/10/30 07:22:53;;;;;;;9.45;1.23;;;;;;;;;;5048301;28;20041;-60
2023/10/30 07:25:18;;;;;;;8.55;1.60;;;;;;;;;;5049680;28;20078;-62
2023/10/30 07:27:44;;;;;;;4.82;1.15;;;;;;;;;;5054283;28;20122;-61
2023/10/30 07:30:10;;;;;;;4.72;1.50;;;;;;;;;;5052960;28;20072;-61
2023/10/30 07:32:35;;;;;;;3.17;1.10;;;;;;;;;;5050497;28;20094;-62
2023/10/30 07:35:01;;;;;;;4.25;1.40;;;;;;;;;;5051801;28;20098;-61
2023/10/30 07:37:27;;;;;;;6.85;1.45;;;;;;;;;;5051046;28;20153;-60
2023/10/30 07:39:52;;;;;;;4.68;1.20;;;;;;;;;;5053126;28;20067;-61
2023/10/30 07:42:18;;;;;;;5.10;1.65;;;;;;;;;;5052447;28;20044;-62
2023/10/30 07:44:43;;;;;;;4.57;1.55;;;;;;;;;;5050162;28;20123;-61
2023/10/30 07:47:09;;;;;;;5.85;1.30;;;;;;;;;;5047979;28;20250;-61
2023/10/30 07:49:35;;;;;;;3.65;1.05;;;;;;;;;;5050930;28;20033;-61
2023/10/30 07:52:00;;;;;;;4.10;1.38;;;;;;;;;;5049253;28;20099;-61
2023/10/30 07:54:26;;;;;;;3.50;1.10;;;;;;;;;;5053480;28;20133;-61
2023/10/30 07:56:51;;;;;;;5.82;1.20;;;;;;;;;;5052795;28;20040;-61
2023/10/30 07:59:17;;;;;;;7.07;1.25;;;;;;;;;;5052700;28;20044;-61
2023/10/30 08:01:45;;;;;;;3.85;1.10;;;;;;;;;;5047684;28;20094;-61
2023/10/30 08:04:11;;;;;;;4.35;0.98;;;;;;;;;;5050229;28;20074;-61
2023/10/30 08:06:36;;;;;;;3.65;0.90;;;;;;;;;;5050149;28;20044;-61
2023/10/30 08:09:02;;;;;;;5.05;1.27;;;;;;;;;;5052010;28;20041;-61
2023/10/30 08:11:27;;;;;;;3.47;1.10;;;;;;;;;;5051401;28;20035;-60
2023/10/30 08:13:53;;;;;;;5.40;1.23;;;;;;;;;;5050450;28;20044;-61
2023/10/30 08:16:18;;;;;;;7.13;1.02;;;;;;;;;;5050282;28;20731;-61
2023/10/30 08:18:44;;;;;;;4.40;1.33;;;;;;;;;;5049835;28;20090;-61
2023/10/30 08:21:10;;;;;;;3.80;1.23;;;;;;;;;;5047488;28;20040;-62
2023/10/30 08:23:37;;;;;;;3.83;1.05;;;;;;;;;;5052090;28;20444;-61
2023/10/30 08:26:03;;;;;;;4.32;1.10;;;;;;;;;;5051231;28;20076;-61
2023/10/30 08:28:29;;;;;;;4.40;1.08;;;;;;;;;;5050849;28;20619;-61
2023/10/30 08:30:55;;;;;;;7.22;1.42;;;;;;;;;;5050642;28;20040;-61
2023/10/30 08:33:20;;;;;;;5.32;1.10;;;;;;;;;;5051117;28;20859;-61
2023/10/30 08:35:46;;;;;;;5.28;1.13;;;;;;;;;;5051253;28;20045;-61
2023/10/30 08:38:12;;;;;;;2.58;0.80;;;;;;;;;;5048610;28;20132;-62
2023/10/30 08:40:37;;;;;;;6.65;1.60;;;;;;;;;;5050502;28;20044;-61
2023/10/30 08:43:03;;;;;;;2.80;1.30;;;;;;;;;;5048637;28;20049;-62
2023/10/30 08:45:28;;;;;;;7.22;1.10;;;;;;;;;;5050790;28;20041;-62
2023/10/30 08:47:54;;;;;;;4.10;1.50;;;;;;;;;;5051716;28;20114;-61
2023/10/30 08:50:20;;;;;;;2.75;0.88;;;;;;;;;;5051533;28;20028;-62
2023/10/30 08:52:46;;;;;;;2.85;0.90;;;;;;;;;;5048131;28;20036;-61
2023/10/30 08:55:11;;;;;;;5.10;1.20;;;;;;;;;;5050513;28;20086;-60
2023/10/30 08:57:37;;;;;;;3.25;1.23;;;;;;;;;;5050758;28;20037;-60
2023/10/30 09:00:07;;;;;;;5.15;1.02;;;;;;;;;;5050954;28;20066;-61
2023/10/30 09:02:35;;;;;;;3.33;0.93;;;;;;;;;;5050062;28;20506;-61
2023/10/30 09:05:01;;;;;;;3.33;0.93;;;;;;;;;;5052194;28;20130;-61
2023/10/30 09:07:27;;;;;;;2.90;1.20;;;;;;;;;;5050565;28;20616;-62
2023/10/30 09:09:52;;;;;;;5.20;1.02;;;;;;;;;;5050098;28;20082;-61
2023/10/30 09:12:18;;;;;;;4.55;1.20;;;;;;;;;;5052126;28;20604;-63
2023/10/30 09:14:43;;;;;;;5.10;1.52;;;;;;;;;;5052303;28;20044;-63
2023/10/30 09:17:09;;;;;;;7.65;1.58;;;;;;;;;;5048622;28;20094;-61
2023/10/30 09:19:35;;;;;;;6.28;1.77;;;;;;;;;;5048826;28;20617;-62
2023/10/30 09:22:01;;;;;;;5.15;1.48;;;;;;;;;;5051259;28;20083;-61
2023/10/30 09:24:26;;;;;;;7.50;1.42;;;;;;;;;;5051669;28;20145;-61
2023/10/30 09:26:52;;;;;;;7.68;1.58;;;;;;;;;;5050066;28;20086;-61
2023/10/30 09:29:18;;;;;;;5.50;1.35;;;;;;;;;;5049140;28;20087;-61
2023/10/30 09:31:44;;;;;;;4.28;1.60;;;;;;;;;;5049395;28;20037;-61
2023/10/30 09:34:10;;;;;;;9.60;1.52;;;;;;;;;;5054936;28;20137;-62
2023/10/30 09:36:35;;;;;;;4.95;1.23;;;;;;;;;;5052210;28;20037;-62
2023/10/30 09:39:01;;;;;;;6.40;1.27;;;;;;;;;;5056601;28;20040;-61
2023/10/30 09:41:27;;;;;;;5.70;1.42;;;;;;;;;;5053742;28;20074;-61
2023/10/30 09:43:53;;;;;;;6.85;1.10;;;;;;;;;;5051624;28;20075;-62
2023/10/30 09:46:21;;;;;;;6.25;1.75;;;;;;;;;;5051741;28;20444;-62
2023/10/30 09:48:48;;;;;;;4.85;1.35;;;;;;;;;;5051984;28;20640;-62
2023/10/30 09:51:14;;;;;;;10.95;2.35;;;;;;;;;;5051765;28;20075;-62
2023/10/30 09:53:41;;;;;;;4.72;1.33;;;;;;;;;;5051440;28;20120;-62
2023/10/30 09:56:07;;;;;;;6.55;1.30;;;;;;;;;;5053784;28;20153;-61
2023/10/30 09:58:32;;;;;;;6.88;1.70;;;;;;;;;;5052019;28;20510;-60
2023/10/30 10:00:59;;;;;;;9.00;1.55;;;;;;;;;;5055169;28;20057;-62
2023/10/30 10:03:25;;;;;;;11.23;1.95;;;;;;;;;;5055505;28;20116;-61
2023/10/30 10:05:54;;;;;;;6.85;1.13;;;;;;;;;;5054110;28;20032;-60
2023/10/30 10:08:20;;;;;;;4.78;1.30;;;;;;;;;;5053969;28;20065;-61
2023/10/30 10:10:55;;;;;;;5.85;1.33;;;;;;;;;;5053984;28;20048;-61
2023/10/30 10:13:21;;;;;;;5.25;1.30;;;;;;;;;;5052460;28;20072;-62
2023/10/30 10:15:47;;;;;;;6.90;1.60;;;;;;;;;;5054753;28;20878;-63
2023/10/30 10:18:33;;;;;;;5.60;1.50;;;;;;;;;;5053077;28;20042;-61
2023/10/30 10:21:03;;;;;;;11.07;1.55;;;;;;;;;;5053687;28;20077;-62
2023/10/30 10:23:33;;;;;;;6.20;1.17;;;;;;;;;;5051908;28;20071;-60
2023/10/30 10:25:59;;;;;;;6.32;1.25;;;;;;;;;;5050335;28;20076;-61
2023/10/30 10:28:25;;;;;;;4.72;1.20;;;;;;;;;;5053805;28;20056;-62
2023/10/30 10:30:54;;;;;;;5.43;1.60;;;;;;;;;;5055129;28;20075;-61
2023/10/30 10:33:22;;;;;;;6.07;1.60;;;;;;;;;;5053075;28;20078;-61
2023/10/30 10:35:55;;;;;;;5.03;1.20;;;;;;;;;;5053352;28;20071;-62
2023/10/30 10:38:21;;;;;;;5.13;1.27;;;;;;;;;;5052863;28;20126;-61
2023/10/30 10:40:47;;;;;;;5.32;1.20;;;;;;;;;;5048322;28;20558;-61
2023/10/30 10:43:15;;;;;;;4.05;1.00;;;;;;;;;;5051852;28;20132;-61
2023/10/30 10:45:41;;;;;;;7.65;1.23;;;;;;;;;;5053700;28;20051;-61
2023/10/30 10:48:07;;;;;;;14.95;1.30;;;;;;;;;;5051306;28;20064;-62
2023/10/30 10:50:34;;;;;;;8.77;1.15;;;;;;;;;;5052428;28;20086;-60
2023/10/30 10:53:02;;;;;;;8.15;1.42;;;;;;;;;;5052005;28;20060;-61
2023/10/30 10:55:29;;;;;;;3.80;1.23;;;;;;;;;;5051129;28;20078;-64
2023/10/30 10:58:04;;;;;;;3.05;1.05;;;;;;;;;;5054094;28;20090;-61
2023/10/30 11:00:31;;;;;;;2.92;0.95;;;;;;;;;;5053516;28;20071;-61
2023/10/30 11:03:00;;;;;;;5.68;1.33;;;;;;;;;;5054252;28;20075;-62
2023/10/30 11:05:29;;;;;;;5.65;1.05;;;;;;;;;;5054050;28;20490;-62
2023/10/30 11:08:02;;;;;;;8.13;1.48;;;;;;;;;;5052307;28;20083;-61
2023/10/30 11:10:31;;;;;;;5.50;1.00;;;;;;;;;;5052397;28;20061;-61
2023/10/30 11:13:16;;;;;;;3.35;1.17;;;;;;;;;;5051831;28;20063;-62
2023/10/30 11:15:51;;;;;;;3.13;1.05;;;;;;;;;;5051012;28;20056;-61
2023/10/30 11:18:17;;;;;;;4.70;1.13;;;;;;;;;;5049786;28;20064;-61
2023/10/30 11:20:43;;;;;;;5.95;1.30;;;;;;;;;;5053081;28;20059;-61
2023/10/30 11:23:09;;;;;;;4.35;1.08;;;;;;;;;;5054832;28;20072;-62
2023/10/30 11:25:55;;;;;;;5.45;1.25;;;;;;;;;;5052974;28;20630;-62
2023/10/30 11:28:22;;;;;;;5.07;1.08;;;;;;;;;;5049244;28;20075;-62
2023/10/30 11:30:48;;;;;;;4.90;1.30;;;;;;;;;;5052878;28;20060;-61
2023/10/30 11:33:20;;;;;;;5.80;1.00;;;;;;;;;;5051445;28;20072;-61
2023/10/30 11:35:50;;;;;;;3.25;1.05;;;;;;;;;;5057516;28;20075;-62
2023/10/30 11:38:18;;;;;;;4.35;1.17;;;;;;;;;;5056720;28;20060;-62
2023/10/30 11:40:59;;;;;;;4.88;1.30;;;;;;;;;;5050337;28;20073;-61
2023/10/30 11:43:29;;;;;;;5.47;1.27;;;;;;;;;;5054329;28;20503;-62
2023/10/30 11:46:00;;;;;;;2.78;0.70;;;;;;;;;;5052198;28;20068;-59
2023/10/30 11:48:26;;;;;;;6.85;1.20;;;;;;;;;;5053207;28;20056;-61
2023/10/30 11:50:53;;;;;;;4.88;1.02;;;;;;;;;;5050616;28;20044;-61
2023/10/30 11:53:19;;;;;;;5.50;1.17;;;;;;;;;;5053061;28;20560;-59
2023/10/30 11:55:47;;;;;;;3.10;1.10;;;;;;;;;;5051252;28;20587;-61
2023/10/30 11:58:13;;;;;;;6.30;0.88;;;;;;;;;;5050265;28;20502;-61
2023/10/30 12:00:41;;;;;;;3.20;0.93;;;;;;;;;;5051525;28;20537;-61
2023/10/30 12:03:07;;;;;;;15.40;1.25;;;;;;;;;;5052680;28;20063;-59
2023/10/30 12:05:33;;;;;;;2.83;1.13;;;;;;;;;;5049558;28;20064;-59
2023/10/30 12:07:58;;;;;;;6.28;1.50;;;;;;;;;;5050694;28;20045;-60
2023/10/30 12:10:24;;;;;;;4.78;0.90;;;;;;;;;;5049563;28;20045;-59
2023/10/30 12:12:50;;;;;;;4.43;1.27;;;;;;;;;;5051598;28;20041;-60
2023/10/30 12:15:15;;;;;;;3.65;1.00;;;;;;;;;;5047564;28;20537;-58
2023/10/30 12:17:41;;;;;;;5.15;1.05;;;;;;;;;;5054083;28;20553;-60
2023/10/30 12:20:07;;;;;;;6.03;1.25;;;;;;;;;;5049598;28;20033;-59
2023/10/30 12:22:39;;;;;;;4.18;0.90;;;;;;;;;;5049763;28;20076;-57
2023/10/30 12:25:05;;;;;;;5.88;1.50;;;;;;;;;;5047197;28;20049;-60
2023/10/30 12:27:31;;;;;;;3.58;1.23;;;;;;;;;;5050349;28;20087;-59
2023/10/30 12:29:57;;;;;;;4.85;0.98;;;;;;;;;;5048890;28;20556;-59
2023/10/30 12:32:26;;;;;;;8.35;0.93;;;;;;;;;;5049240;28;20064;-60
2023/10/30 12:34:52;;;;;;;6.57;1.20;;;;;;;;;;5048484;28;20056;-60
2023/10/30 12:37:18;;;;;;;10.27;1.25;;;;;;;;;;5051013;28;20040;-60
2023/10/30 12:40:07;;;;;;;5.28;1.10;;;;;;;;;;5052032;28;20133;-60
2023/10/30 12:42:53;;;;;;;7.00;1.20;;;;;;;;;;5046928;28;20890;-60
2023/10/30 12:45:20;;;;;;;4.07;1.30;;;;;;;;;;5048565;28;20069;-60
2023/10/30 12:47:50;;;;;;;3.88;0.85;;;;;;;;;;5048230;28;20134;-59
2023/10/30 12:50:16;;;;;;;4.47;1.27;;;;;;;;;;5050976;28;20069;-60
2023/10/30 12:52:42;;;;;;;4.55;1.45;;;;;;;;;;5048476;28;20077;-60
2023/10/30 12:55:08;;;;;;;3.80;1.13;;;;;;;;;;5049175;28;20601;-60
2023/10/30 12:57:40;;;;;;;9.05;1.40;;;;;;;;;;5049283;28;20124;-59
2023/10/30 13:00:07;;;;;;;5.10;1.42;;;;;;;;;;5052654;28;20987;-60
2023/10/30 13:02:32;;;;;;;4.80;1.27;;;;;;;;;;5052213;28;20118;-60
2023/10/30 13:04:58;;;;;;;4.10;0.98;;;;;;;;;;5046818;28;20034;-59
2023/10/30 13:07:23;;;;;;;10.88;1.35;;;;;;;;;;5052630;28;20106;-60
2023/10/30 13:09:49;;;;;;;6.90;1.73;;;;;;;;;;5054208;28;20099;-60
2023/10/30 13:12:15;;;;;;;3.85;1.30;;;;;;;;;;5055390;28;20032;-61
2023/10/30 13:14:40;;;;;;;6.85;1.40;;;;;;;;;;5054428;28;20036;-60
2023/10/30 13:17:06;;;;;;;6.38;1.40;;;;;;;;;;5054478;28;20098;-59
2023/10/30 13:19:32;;;;;;;5.88;1.60;;;;;;;;;;5053857;28;20082;-59
2023/10/30 13:21:58;;;;;;;3.70;1.00;;;;;;;;;;5055131;28;20056;-57
2023/10/30 13:24:24;;;;;;;4.65;1.27;;;;;;;;;;5059958;28;20090;-60
2023/10/30 13:26:50;;;;;;;8.63;1.20;;;;;;;;;;5057255;28;20990;-60
2023/10/30 13:29:15;;;;;;;4.75;1.08;;;;;;;;;;5055838;28;20090;-61
2023/10/30 13:31:41;;;;;;;6.70;1.35;;;;;;;;;;5057677;28;20086;-62
2023/10/30 13:34:06;;;;;;;4.72;1.50;;;;;;;;;;5056514;28;20109;-62
2023/10/30 13:36:32;;;;;;;3.00;1.13;;;;;;;;;;5059754;28;20553;-60
2023/10/30 13:38:58;;;;;;;5.22;1.00;;;;;;;;;;5054669;28;20053;-61
2023/10/30 13:41:23;;;;;;;7.28;1.27;;;;;;;;;;5058159;28;20086;-63
2023/10/30 13:43:50;;;;;;;8.82;1.38;;;;;;;;;;5057416;28;20543;-62
2023/10/30 13:46:16;;;;;;;7.03;1.25;;;;;;;;;;5055863;28;20074;-63
2023/10/30 13:48:42;;;;;;;8.38;1.50;;;;;;;;;;5056317;28;20033;-62
2023/10/30 13:51:07;;;;;;;3.38;1.08;;;;;;;;;;5039879;28;20040;-63
2023/10/30 13:53:33;;;;;;;4.38;1.02;;;;;;;;;;5057318;28;20056;-63
2023/10/30 13:56:00;;;;;;;5.03;1.60;;;;;;;;;;5055526;28;20694;-60
2023/10/30 13:58:26;;;;;;;4.95;1.42;;;;;;;;;;5055087;28;20067;-61
2023/10/30 14:00:51;;;;;;;4.47;1.38;;;;;;;;;;5054344;28;20041;-61
2023/10/30 14:03:17;;;;;;;3.72;1.27;;;;;;;;;;5053766;28;20037;-61
2023/10/30 14:05:42;;;;;;;4.47;1.38;;;;;;;;;;5055666;28;20029;-62
2023/10/30 14:08:08;;;;;;;5.22;1.40;;;;;;;;;;5054911;28;20091;-62
2023/10/30 14:10:33;;;;;;;5.20;1.10;;;;;;;;;;5052846;28;20090;-63
2023/10/30 14:12:59;;;;;;;8.00;1.40;;;;;;;;;;5054712;28;20060;-58
2023/10/30 14:15:25;;;;;;;6.88;1.33;;;;;;;;;;5054554;28;20457;-62
2023/10/30 14:17:50;;;;;;;3.63;1.02;;;;;;;;;;5052771;28;20086;-61
2023/10/30 14:20:16;;;;;;;4.50;0.98;;;;;;;;;;5050876;28;20040;-62
2023/10/30 14:22:42;;;;;;;4.05;1.10;;;;;;;;;;5052360;28;20045;-61
2023/10/30 14:25:07;;;;;;;5.15;1.20;;;;;;;;;;5054471;28;20033;-61
2023/10/30 14:27:33;;;;;;;2.78;1.02;;;;;;;;;;5052293;28;20037;-61
2023/10/30 14:29:59;;;;;;;3.97;0.98;;;;;;;;;;5053498;28;20049;-63
2023/10/30 14:32:24;;;;;;;4.28;1.17;;;;;;;;;;5055994;28;20082;-61
2023/10/30 14:34:50;;;;;;;4.25;0.93;;;;;;;;;;5053134;28;20040;-61
2023/10/30 14:37:15;;;;;;;5.40;1.13;;;;;;;;;;5052924;28;20040;-61